CST,Max TemperatureF,Mean TemperatureF,Min TemperatureF,Max Dew PointF,MeanDew PointF,Min DewpointF,Max Humidity, Mean Humidity, Min Humidity, Max Sea Level PressureIn, Mean Sea Level PressureIn, Min Sea Level PressureIn, Max VisibilityMiles, Mean VisibilityMiles, Min VisibilityMiles, Max Wind SpeedMPH, Mean Wind SpeedMPH, Max Gust SpeedMPH,PrecipitationIn, CloudCover, Events, WindDirDegrees
2013-12-1,68,61,53,56,52,46,87,75,63,30.19,30.07,29.91,10,10,10,17,9,22,0.00,6,,187
2013-12-2,74,61,48,57,53,46,96,72,47,29.87,29.77,29.67,10,9,2,14,5,17,0.00,4,,222
2013-12-3,79,64,48,58,52,46,100,68,35,29.68,29.62,29.54,10,5,0,17,7,22,0.00,3,Fog,178
2013-12-4,80,71,62,65,61,59,93,72,51,29.82,29.72,29.64,10,8,4,20,10,23,0.00,3,,184
2013-12-5,70,53,35,66,39,32,90,78,65,30.11,30.00,29.79,10,6,2,18,10,25,0.20,8,Rain,339
2013-12-6,38,34,30,36,32,28,92,89,85,30.45,30.20,30.05,10,5,2,17,10,23,0.46,8,Rain-Thunderstorm,357
2013-12-7,33,32,30,28,27,25,92,82,72,30.50,30.39,30.27,10,9,2,13,14,17,T,8,Rain,40
2013-12-8,39,35,31,36,32,28,92,86,79,30.28,30.16,30.07,10,7,2,8,2,10,0.00,8,,112
2013-12-9,39,37,35,36,33,31,92,89,85,30.36,30.21,30.14,10,7,2,14,7,17,0.02,8,Rain,11
2013-12-10,44,34,23,31,25,19,92,71,49,30.51,30.41,30.36,10,9,6,17,5,24,0.00,2,,329
2013-12-11,51,38,25,33,29,23,92,69,46,30.56,30.45,30.37,10,9,6,9,3,13,0.00,1,,12
2013-12-12,52,41,29,32,27,23,85,59,32,30.63,30.52,30.38,10,10,10,12,3,14,0.00,0,,91
2013-12-13,44,40,36,43,37,27,96,77,57,30.35,30.02,29.85,10,6,2,14,4,18,1.19,7,Rain,124
2013-12-14,50,42,34,48,41,28,93,80,67,30.30,30.00,29.81,10,8,2,23,10,29,T,7,Rain,310
2013-12-15,55,41,27,33,29,24,92,65,38,30.37,30.31,30.28,10,8,4,9,4,31,0.00,0,,287
2013-12-16,65,49,33,37,33,29,82,57,31,30.31,30.25,30.19,10,10,10,14,6,17,0.00,0,,198
2013-12-17,71,53,34,42,36,31,89,59,28,30.30,30.26,30.23,10,10,10,9,2,14,0.00,0,,192
2013-12-18,70,52,33,46,38,31,92,62,31,30.31,30.20,30.09,10,10,9,17,6,23,0.00,0,,176
2013-12-19,73,61,49,61,55,47,83,70,57,30.07,29.93,29.83,10,10,10,23,12,32,T,5,,170
2013-12-20,73,70,67,67,64,61,90,83,76,29.89,29.80,29.71,10,9,5,20,9,25,0.15,7,Rain-Thunderstorm,175
2013-12-21,71,59,46,67,53,43,96,90,84,29.79,29.66,29.52,10,6,1,28,8,33,2.13,7,Rain-Thunderstorm,208
2013-12-22,54,44,33,52,39,25,96,83,69,30.38,30.05,29.80,10,9,2,18,11,23,0.00,6,,312
2013-12-23,49,38,27,30,26,23,85,64,42,30.56,30.48,30.37,10,10,7,12,4,28,0.00,1,,347
2013-12-24,50,38,26,32,29,23,92,69,46,30.58,30.47,30.35,10,9,7,10,5,14,0.00,0,,134
2013-12-25,58,43,28,39,33,26,92,66,40,30.39,30.36,30.30,10,10,5,12,4,15,0.00,4,,148
2013-12-26,58,46,33,39,35,31,92,68,43,30.44,30.38,30.32,10,9,4,8,2,9,0.00,0,,317
2013-12-27,57,46,34,41,36,32,96,72,47,30.48,30.40,30.34,10,9,6,9,1,12,0.00,0,,135
2013-12-28,54,46,38,40,37,31,92,67,41,30.32,30.17,30.01,10,9,4,7,1,8,0.00,1,,165
2013-12-29,60,47,34,45,36,27,96,75,54,30.22,30.08,29.98,10,10,10,18,5,22,0.00,4,,290
2013-12-30,41,37,32,29,27,25,85,72,59,30.41,30.29,30.21,10,10,10,14,6,17,0.00,5,,317
2013-12-31,52,40,28,32,29,26,92,65,38,30.48,30.39,30.27,10,9,5,12,3,13,0.00,0,,144